createdAt,value
2018-07-26T00:01:11.391Z,71.30
2018-07-26T00:03:39.724Z,71.80
2018-07-26T00:06:08.442Z,72.00
2018-07-26T00:08:36.835Z,72.40
2018-07-26T00:11:05.191Z,72.60
2018-07-26T00:13:33.580Z,72.70
2018-07-26T00:16:01.896Z,73.00
2018-07-26T00:18:30.218Z,73.00
2018-07-26T00:20:58.536Z,73.10
2018-07-26T00:23:27.295Z,73.00
2018-07-26T00:25:55.615Z,73.30
2018-07-26T00:28:23.947Z,73.80
2018-07-26T00:30:52.341Z,73.90
2018-07-26T00:33:20.671Z,73.90
2018-07-26T00:35:49.568Z,73.80
2018-07-26T00:38:18.015Z,73.80
2018-07-26T00:40:46.763Z,74.00
2018-07-26T00:43:15.138Z,74.10
2018-07-26T00:48:11.729Z,74.50
2018-07-26T00:50:40.076Z,74.50
2018-07-26T00:53:08.426Z,74.70
2018-07-26T00:55:36.806Z,74.90
2018-07-26T00:58:05.675Z,75.00
2018-07-26T01:00:33.955Z,75.10
2018-07-26T01:03:02.496Z,75.20
2018-07-26T01:05:30.860Z,75.20
2018-07-26T01:07:59.210Z,75.20
2018-07-26T01:10:27.587Z,75.20
2018-07-26T01:15:24.078Z,75.50
2018-07-26T01:17:52.415Z,75.30
2018-07-26T01:20:20.732Z,75.20
2018-07-26T01:22:49.073Z,75.60
2018-07-26T01:25:17.378Z,75.30
2018-07-26T01:27:45.931Z,75.30
2018-07-26T01:30:14.286Z,75.40
2018-07-26T01:32:42.631Z,75.70
2018-07-26T01:35:10.983Z,75.70
2018-07-26T01:37:39.518Z,75.70
2018-07-26T01:40:07.870Z,76.20
2018-07-26T01:42:47.640Z,75.40
2018-07-26T01:45:16.055Z,75.70
2018-07-26T01:47:44.467Z,76.10
2018-07-26T01:50:12.806Z,76.10
2018-07-26T01:52:41.186Z,76.10
2018-07-26T01:57:38.057Z,76.10
2018-07-26T02:02:34.739Z,76.00
2018-07-26T02:05:03.078Z,76.10
2018-07-26T02:07:31.393Z,76.30
2018-07-26T02:09:59.756Z,76.10
2018-07-26T02:12:28.373Z,76.50
2018-07-26T02:14:56.717Z,76.60
2018-07-26T02:17:25.058Z,76.90
2018-07-26T02:19:53.500Z,77.20
2018-07-26T02:22:21.879Z,77.40
2018-07-26T02:24:50.276Z,77.50
2018-07-26T02:27:18.714Z,77.50
2018-07-26T02:29:47.655Z,77.90
2018-07-26T02:32:15.990Z,78.20
2018-07-26T02:34:50.863Z,78.40
2018-07-26T02:37:19.217Z,78.30
2018-07-26T02:39:47.558Z,78.30
2018-07-26T02:42:15.929Z,78.50
2018-07-26T02:44:44.323Z,78.30
2018-07-26T02:47:12.624Z,78.70
2018-07-26T02:49:40.945Z,78.70
2018-07-26T02:52:09.286Z,79.00
2018-07-26T02:54:37.649Z,78.60
2018-07-26T02:57:06.189Z,78.70
2018-07-26T02:59:34.524Z,78.70
2018-07-26T03:02:02.962Z,78.60
2018-07-26T03:04:31.285Z,78.50
2018-07-26T03:06:59.627Z,78.60
2018-07-26T03:09:28.053Z,78.50
2018-07-26T03:11:56.402Z,78.20
2018-07-26T03:14:25.008Z,78.20
2018-07-26T03:16:53.374Z,78.00
2018-07-26T03:19:21.751Z,78.10
2018-07-26T03:21:50.148Z,78.30
2018-07-26T03:24:18.501Z,78.10
2018-07-26T03:26:46.910Z,78.40
2018-07-26T03:29:15.315Z,78.20
2018-07-26T03:31:43.675Z,77.90
2018-07-26T03:34:12.032Z,78.00
2018-07-26T03:36:40.397Z,78.20
2018-07-26T03:39:09.617Z,78.50
2018-07-26T03:41:38.142Z,78.10
2018-07-26T03:44:06.556Z,78.30
2018-07-26T03:46:34.940Z,78.60
2018-07-26T03:49:03.287Z,79.00
2018-07-26T03:51:31.671Z,79.10
2018-07-26T03:56:28.043Z,79.30
2018-07-26T03:58:56.422Z,79.10
2018-07-26T04:01:24.915Z,79.30
2018-07-26T04:03:53.274Z,79.50
2018-07-26T04:06:21.898Z,79.50
2018-07-26T04:08:50.286Z,79.70
2018-07-26T04:11:18.755Z,79.70
2018-07-26T04:13:47.171Z,80.00
2018-07-26T04:16:15.521Z,80.30
2018-07-26T04:18:43.867Z,80.50
2018-07-26T04:21:12.245Z,80.70
2018-07-26T04:23:40.588Z,80.60
2018-07-26T04:26:08.948Z,80.60
2018-07-26T04:28:37.326Z,80.70
2018-07-26T04:31:05.767Z,80.80
2018-07-26T04:33:34.165Z,80.70
2018-07-26T04:36:02.517Z,80.50
2018-07-26T04:38:30.871Z,80.50
2018-07-26T04:40:59.286Z,80.80
2018-07-26T04:43:27.615Z,80.40
2018-07-26T04:45:55.994Z,80.40
2018-07-26T04:48:24.396Z,80.30
2018-07-26T04:50:52.817Z,80.40
2018-07-26T04:53:21.175Z,79.90
2018-07-26T04:55:49.488Z,79.70
2018-07-26T04:58:18.195Z,79.80
2018-07-26T05:00:46.502Z,79.50
2018-07-26T05:03:14.845Z,79.10
2018-07-26T05:05:43.240Z,78.80
2018-07-26T05:08:11.633Z,78.40
2018-07-26T05:10:47.678Z,78.40
2018-07-26T05:13:16.067Z,77.70
2018-07-26T05:15:44.433Z,77.60
2018-07-26T05:18:16.876Z,77.50
2018-07-26T05:20:45.229Z,77.00
2018-07-26T05:23:13.544Z,76.60
2018-07-26T05:25:42.470Z,76.90
2018-07-26T05:28:10.795Z,76.90
2018-07-26T05:30:39.210Z,76.50
2018-07-26T05:33:07.578Z,76.80
2018-07-26T05:35:35.923Z,76.70
2018-07-26T05:38:04.626Z,76.80
2018-07-26T05:40:33.553Z,76.30
2018-07-26T05:43:01.843Z,76.30
2018-07-26T05:45:31.525Z,75.50
2018-07-26T05:48:01.609Z,75.40
2018-07-26T05:50:29.966Z,75.30
2018-07-26T05:52:58.301Z,75.30
2018-07-26T05:55:26.678Z,75.10
2018-07-26T05:57:55.087Z,75.30
2018-07-26T06:00:23.449Z,74.90
2018-07-26T06:02:51.795Z,74.70
2018-07-26T06:05:20.182Z,74.60
2018-07-26T06:07:48.594Z,74.50
2018-07-26T06:12:45.015Z,73.90
2018-07-26T06:15:13.480Z,74.00
2018-07-26T06:17:42.104Z,73.30
2018-07-26T06:20:11.979Z,73.60
2018-07-26T06:22:40.730Z,73.10
2018-07-26T06:25:09.756Z,73.70
2018-07-26T06:27:38.146Z,73.60
2018-07-26T06:30:08.823Z,72.90
2018-07-26T06:32:37.159Z,72.90
2018-07-26T06:35:05.955Z,72.50
2018-07-26T06:37:34.311Z,72.30
2018-07-26T06:40:02.862Z,72.00
2018-07-26T06:42:31.222Z,71.90
2018-07-26T06:44:59.574Z,71.80
2018-07-26T06:47:28.424Z,71.80
2018-07-26T06:49:56.831Z,71.70
2018-07-26T06:52:25.245Z,71.30
2018-07-26T06:54:53.738Z,71.10
2018-07-26T06:57:22.089Z,71.10
2018-07-26T06:59:50.526Z,70.80
2018-07-26T07:02:18.806Z,70.60
2018-07-26T07:04:47.155Z,70.80
2018-07-26T07:07:15.490Z,71.40
2018-07-26T07:09:43.854Z,70.50
2018-07-26T07:12:12.244Z,70.20
2018-07-26T07:14:40.619Z,70.00
2018-07-26T07:17:09.067Z,69.70
2018-07-26T07:22:05.584Z,69.60
2018-07-26T07:24:34.134Z,69.40
2018-07-26T07:27:02.466Z,68.90
2018-07-26T07:29:30.780Z,68.90
2018-07-26T07:31:59.129Z,68.60
2018-07-26T07:39:24.640Z,68.00
2018-07-26T07:41:52.978Z,68.40
2018-07-26T07:44:21.356Z,67.70
2018-07-26T07:46:49.702Z,67.00
2018-07-26T07:49:18.092Z,67.60
2018-07-26T07:51:46.454Z,67.50
2018-07-26T07:54:14.844Z,66.80
2018-07-26T07:59:11.265Z,65.20
2018-07-26T08:01:39.616Z,65.10
2018-07-26T08:04:07.938Z,64.50
2018-07-26T08:06:36.291Z,64.40
2018-07-26T08:09:07.855Z,64.40
2018-07-26T08:11:36.188Z,64.10
2018-07-26T08:14:05.019Z,63.90
2018-07-26T08:16:34.104Z,63.60
2018-07-26T08:19:02.431Z,62.80
2018-07-26T08:23:59.540Z,62.10
2018-07-26T08:26:27.889Z,61.70
2018-07-26T08:28:56.326Z,61.40
2018-07-26T08:31:24.690Z,61.20
2018-07-26T08:33:53.074Z,60.50
2018-07-26T08:36:21.446Z,60.60
2018-07-26T08:38:49.767Z,60.60
2018-07-26T08:41:18.158Z,59.70
2018-07-26T08:43:46.584Z,59.70
2018-07-26T08:46:14.936Z,59.10
2018-07-26T08:48:43.306Z,58.90
2018-07-26T08:51:11.918Z,58.90
2018-07-26T08:53:40.282Z,58.50
2018-07-26T08:56:08.650Z,58.20
2018-07-26T08:58:37.007Z,57.50
2018-07-26T09:01:05.802Z,57.50
2018-07-26T09:03:34.847Z,57.50
2018-07-26T09:06:03.272Z,57.70
2018-07-26T09:11:00.663Z,57.30
2018-07-26T09:13:29.005Z,57.00
2018-07-26T09:15:57.466Z,56.50
2018-07-26T09:18:25.827Z,56.40
2018-07-26T09:20:54.212Z,56.60
2018-07-26T09:23:22.622Z,56.10
2018-07-26T09:25:51.019Z,55.10
2018-07-26T09:28:19.353Z,55.30
2018-07-26T09:30:48.138Z,55.10
2018-07-26T09:33:19.442Z,54.80
2018-07-26T09:35:47.859Z,54.50
2018-07-26T09:38:16.207Z,54.40
2018-07-26T09:40:44.620Z,54.40
2018-07-26T09:43:13.050Z,54.10
2018-07-26T09:45:41.388Z,53.70
2018-07-26T09:48:09.780Z,53.20
2018-07-26T09:50:38.156Z,53.70
2018-07-26T09:53:06.534Z,53.60
2018-07-26T09:55:34.886Z,53.10
2018-07-26T09:58:03.257Z,53.20
2018-07-26T10:00:36.862Z,52.80
2018-07-26T10:03:11.858Z,52.30
2018-07-26T10:05:40.253Z,52.30
2018-07-26T10:08:08.579Z,52.40
2018-07-26T10:10:36.960Z,51.60
2018-07-26T10:13:05.440Z,50.60
2018-07-26T10:15:33.777Z,51.40
2018-07-26T10:18:02.317Z,50.70
2018-07-26T10:20:30.627Z,50.20
2018-07-26T10:22:58.976Z,50.40
2018-07-26T10:25:27.912Z,50.40
2018-07-26T10:27:56.631Z,50.00
2018-07-26T10:30:25.071Z,49.30
2018-07-26T10:32:53.455Z,48.50
2018-07-26T10:35:21.784Z,47.90
2018-07-26T10:37:50.168Z,47.00
2018-07-26T10:40:18.547Z,46.60
2018-07-26T10:42:46.900Z,46.30
2018-07-26T10:45:15.303Z,45.80
2018-07-26T10:47:43.692Z,45.70
2018-07-26T10:50:12.097Z,45.00
2018-07-26T10:52:40.431Z,45.10
2018-07-26T10:55:09.190Z,44.50
2018-07-26T10:57:38.383Z,43.90
2018-07-26T11:00:08.412Z,44.20
2018-07-26T11:02:37.399Z,43.10
2018-07-26T11:05:07.574Z,43.10
2018-07-26T11:07:35.973Z,42.70
2018-07-26T11:10:05.584Z,42.40
2018-07-26T11:12:34.070Z,42.40
2018-07-26T11:15:23.091Z,42.20
2018-07-26T11:17:51.477Z,41.40
2018-07-26T11:20:20.002Z,40.90
2018-07-26T11:22:48.368Z,40.20
2018-07-26T11:27:44.773Z,37.30
2018-07-26T11:30:13.264Z,38.40
2018-07-26T11:32:41.757Z,38.50
2018-07-26T11:35:11.726Z,37.40
2018-07-26T11:37:40.816Z,37.50
2018-07-26T11:40:09.165Z,37.40
2018-07-26T11:42:37.537Z,37.40
2018-07-26T11:45:06.965Z,36.80
2018-07-26T11:47:36.579Z,37.40
2018-07-26T11:50:05.973Z,38.10
2018-07-26T11:52:34.309Z,37.50
2018-07-26T11:55:02.665Z,36.20
2018-07-26T11:57:30.993Z,36.60
2018-07-26T11:59:59.436Z,35.50
2018-07-26T12:02:27.756Z,35.30
2018-07-26T12:04:56.213Z,36.20
2018-07-26T12:07:24.560Z,36.30
2018-07-26T12:09:52.918Z,36.10
2018-07-26T12:12:22.181Z,35.60
2018-07-26T12:14:53.095Z,35.00
2018-07-26T12:17:24.373Z,33.80
2018-07-26T12:20:05.170Z,33.90
2018-07-26T12:22:33.540Z,34.30
2018-07-26T12:27:30.056Z,32.80
2018-07-26T12:29:58.424Z,33.40
2018-07-26T12:32:26.745Z,32.90
2018-07-26T12:34:55.095Z,33.30
2018-07-26T12:37:23.494Z,32.60
2018-07-26T12:39:52.217Z,32.70
2018-07-26T12:42:20.909Z,33.40
2018-07-26T12:44:49.326Z,33.10
2018-07-26T12:47:17.711Z,33.20
2018-07-26T12:49:46.054Z,33.20
2018-07-26T12:52:17.862Z,32.40
2018-07-26T12:54:46.324Z,32.00
2018-07-26T12:57:14.668Z,31.00
2018-07-26T12:59:43.015Z,30.40
2018-07-26T13:02:11.406Z,32.00
2018-07-26T13:04:39.769Z,30.90
2018-07-26T13:07:08.448Z,31.30
2018-07-26T13:09:36.756Z,31.80
2018-07-26T13:12:05.114Z,30.70
2018-07-26T13:14:33.599Z,29.70
2018-07-26T13:17:01.963Z,29.40
2018-07-26T13:19:30.291Z,28.70
2018-07-26T13:21:58.953Z,28.80
2018-07-26T13:24:27.277Z,29.20
2018-07-26T13:26:55.757Z,29.30
2018-07-26T13:29:24.067Z,28.90
2018-07-26T13:36:48.574Z,28.80
2018-07-26T13:39:16.951Z,28.80
2018-07-26T13:41:45.290Z,28.10
2018-07-26T13:44:13.669Z,28.60
2018-07-26T13:46:42.030Z,28.00
2018-07-26T13:49:10.391Z,28.70
2018-07-26T13:51:38.782Z,28.60
2018-07-26T13:54:07.115Z,28.80
2018-07-26T13:56:35.454Z,28.60
2018-07-26T13:59:03.847Z,28.20
2018-07-26T14:01:32.316Z,27.40
2018-07-26T14:04:00.712Z,26.90
2018-07-26T14:06:29.059Z,27.80
2018-07-26T14:08:57.420Z,28.60
2018-07-26T14:11:25.773Z,28.90
2018-07-26T14:13:54.147Z,28.80
2018-07-26T14:16:22.553Z,28.40
2018-07-26T14:18:50.938Z,28.60
2018-07-26T14:21:19.265Z,28.70
2018-07-26T14:23:52.100Z,28.20
2018-07-26T14:26:20.415Z,29.50
2018-07-26T14:28:48.999Z,29.70
2018-07-26T14:31:17.459Z,29.70
2018-07-26T14:33:45.816Z,29.30
2018-07-26T14:36:14.253Z,29.10
2018-07-26T14:38:43.493Z,29.60
2018-07-26T14:41:11.940Z,31.30
2018-07-26T14:43:40.309Z,31.70
2018-07-26T14:46:08.631Z,30.80
2018-07-26T14:48:37.988Z,29.20
2018-07-26T14:51:06.321Z,29.60
2018-07-26T14:53:34.739Z,28.60
2018-07-26T14:56:03.107Z,28.70
2018-07-26T14:58:31.462Z,28.90
2018-07-26T15:00:59.820Z,29.00
2018-07-26T15:03:28.288Z,28.90
2018-07-26T15:05:56.682Z,29.10
2018-07-26T15:08:25.204Z,30.80
2018-07-26T15:10:53.692Z,28.90
2018-07-26T15:13:22.177Z,30.00
2018-07-26T15:15:50.515Z,30.00
2018-07-26T15:18:18.898Z,29.20
2018-07-26T15:20:47.314Z,29.80
2018-07-26T15:23:15.726Z,29.90
2018-07-26T15:25:44.200Z,30.70
2018-07-26T15:28:13.124Z,29.90
2018-07-26T15:30:41.584Z,29.70
2018-07-26T15:33:10.039Z,28.80
2018-07-26T15:35:38.386Z,28.20
2018-07-26T15:38:06.769Z,28.60
2018-07-26T15:40:35.174Z,28.10
2018-07-26T15:43:03.583Z,29.10
2018-07-26T15:45:32.092Z,27.70
2018-07-26T15:48:00.717Z,27.80
2018-07-26T15:50:29.928Z,27.80
2018-07-26T15:52:58.664Z,27.00
2018-07-26T15:55:27.295Z,26.00
2018-07-26T15:57:55.793Z,25.70
2018-07-26T16:00:24.964Z,25.50
2018-07-26T16:02:53.363Z,24.50
2018-07-26T16:05:21.846Z,22.50
2018-07-26T16:07:50.353Z,22.80
2018-07-26T16:10:18.745Z,24.10
2018-07-26T16:15:15.475Z,21.90
2018-07-26T16:17:44.035Z,21.50
2018-07-26T16:20:12.488Z,21.90
2018-07-26T16:22:40.895Z,21.00
2018-07-26T16:25:10.553Z,22.60
2018-07-26T16:27:42.421Z,23.80
2018-07-26T16:30:12.600Z,22.70
2018-07-26T16:32:46.739Z,21.40
2018-07-26T16:35:20.953Z,22.30
2018-07-26T16:37:49.423Z,20.80
2018-07-26T16:40:17.932Z,22.90
2018-07-26T16:42:46.334Z,22.70
2018-07-26T16:45:14.777Z,22.90
2018-07-26T16:47:43.351Z,23.20
2018-07-26T16:50:11.884Z,23.10
2018-07-26T16:52:40.363Z,23.10
2018-07-26T16:55:08.828Z,23.10
2018-07-26T17:00:07.140Z,24.30
2018-07-26T17:02:35.666Z,22.10
2018-07-26T17:05:06.653Z,22.40
2018-07-26T17:07:35.447Z,22.40
2018-07-26T17:10:05.659Z,23.10
2018-07-26T17:12:34.207Z,24.80
2018-07-26T17:15:06.094Z,23.50
2018-07-26T17:17:34.554Z,24.40
2018-07-26T17:22:31.216Z,24.70
2018-07-26T17:27:28.255Z,23.40
2018-07-26T17:29:56.729Z,24.80
2018-07-26T17:32:25.283Z,25.30
2018-07-26T17:34:54.148Z,26.70
2018-07-26T17:37:23.224Z,27.80
2018-07-26T17:39:51.794Z,29.40
2018-07-26T17:42:20.242Z,31.00
2018-07-26T17:44:48.677Z,31.60
2018-07-26T17:47:17.165Z,29.80
2018-07-26T17:49:45.544Z,29.90
2018-07-26T17:52:14.051Z,29.30
2018-07-26T17:54:42.664Z,30.00
2018-07-26T17:57:11.075Z,30.50
2018-07-26T17:59:39.412Z,32.20
2018-07-26T18:02:07.786Z,31.90
2018-07-26T18:04:36.330Z,32.50
2018-07-26T18:07:04.753Z,31.90
2018-07-26T18:09:33.383Z,33.00
2018-07-26T18:12:01.882Z,31.40
2018-07-26T18:14:31.255Z,32.20
2018-07-26T18:16:59.744Z,35.10
2018-07-26T18:19:29.455Z,35.90
2018-07-26T18:21:58.149Z,34.00
2018-07-26T18:24:26.833Z,41.80
2018-07-26T18:26:55.352Z,35.20
2018-07-26T18:29:25.100Z,32.50
2018-07-26T18:31:54.411Z,33.10
2018-07-26T18:34:23.161Z,34.40
2018-07-26T18:36:51.736Z,35.60
2018-07-26T18:39:20.228Z,36.20
2018-07-26T18:41:48.652Z,37.90
2018-07-26T18:44:17.807Z,39.40
2018-07-26T18:46:47.919Z,39.90
2018-07-26T18:49:16.771Z,40.70
2018-07-26T18:51:53.768Z,41.50
2018-07-26T18:54:22.199Z,41.00
2018-07-26T18:56:50.655Z,41.50
2018-07-26T18:59:19.177Z,41.70
2018-07-26T19:01:48.198Z,41.50
2018-07-26T19:04:16.690Z,41.40
2018-07-26T19:09:13.735Z,37.90
2018-07-26T19:11:42.625Z,38.20
2018-07-26T19:14:10.992Z,39.00
2018-07-26T19:16:39.345Z,40.30
2018-07-26T19:19:07.820Z,40.90
2018-07-26T19:21:36.234Z,40.80
2018-07-26T19:26:33.722Z,45.40
2018-07-26T19:31:31.096Z,48.80
2018-07-26T19:33:59.626Z,54.40
2018-07-26T19:36:28.005Z,52.70
2018-07-26T19:38:56.381Z,58.70
2018-07-26T19:41:24.872Z,57.30
2018-07-26T19:43:53.907Z,60.60
2018-07-26T19:46:22.622Z,57.60
2018-07-26T19:48:54.372Z,58.60
2018-07-26T19:51:22.767Z,60.50
2018-07-26T19:53:51.198Z,61.60
2018-07-26T19:56:20.567Z,62.90
2018-07-26T19:58:49.136Z,63.80
2018-07-26T20:01:17.704Z,66.10
2018-07-26T20:03:46.063Z,68.70
2018-07-26T20:06:14.490Z,67.80
2018-07-26T20:08:43.378Z,68.30
2018-07-26T20:11:11.807Z,68.40
2018-07-26T20:13:40.223Z,66.80
2018-07-26T20:16:08.682Z,71.30
2018-07-26T20:18:37.122Z,71.80
2018-07-26T20:21:05.578Z,70.30
2018-07-26T20:23:34.008Z,68.70
2018-07-26T20:26:03.174Z,68.30
2018-07-26T20:28:31.998Z,67.40
2018-07-26T20:33:28.737Z,68.40
2018-07-26T20:35:57.089Z,69.30
2018-07-26T20:38:25.551Z,69.40
2018-07-26T20:40:54.267Z,69.30
2018-07-26T20:43:22.648Z,68.40
2018-07-26T20:45:50.998Z,68.30
2018-07-26T20:48:19.423Z,69.10
2018-07-26T20:50:47.765Z,65.50
2018-07-26T20:55:44.207Z,67.00
2018-07-26T20:58:12.624Z,68.20
2018-07-26T21:00:41.116Z,67.70
2018-07-26T21:03:09.470Z,65.80
2018-07-26T21:05:37.872Z,65.60
2018-07-26T21:08:07.942Z,67.90
2018-07-26T21:10:36.306Z,66.80
2018-07-26T21:13:04.694Z,67.40
2018-07-26T21:15:33.390Z,68.20
2018-07-26T21:18:01.785Z,65.20
2018-07-26T21:20:30.195Z,64.50
2018-07-26T21:22:58.606Z,64.90
2018-07-26T21:25:26.987Z,63.70
2018-07-26T21:27:55.458Z,65.30
2018-07-26T21:30:23.912Z,65.00
2018-07-26T21:32:52.260Z,65.20
2018-07-26T21:35:20.603Z,65.90
2018-07-26T21:37:48.974Z,64.50
2018-07-26T21:40:17.307Z,64.30
2018-07-26T21:42:45.657Z,64.30
2018-07-26T21:45:13.987Z,64.10
2018-07-26T21:47:42.322Z,63.80
2018-07-26T21:50:10.701Z,64.70
2018-07-26T21:52:39.332Z,64.70
2018-07-26T21:55:07.764Z,65.40
2018-07-26T21:57:36.619Z,65.10
2018-07-26T22:00:08.649Z,64.90
2018-07-26T22:02:36.987Z,66.20
2018-07-26T22:05:05.651Z,67.30
2018-07-26T22:07:34.040Z,67.00
2018-07-26T22:10:02.408Z,66.50
2018-07-26T22:12:30.748Z,66.30
2018-07-26T22:14:59.188Z,66.40
2018-07-26T22:17:27.555Z,67.20
2018-07-26T22:19:56.460Z,67.00
2018-07-26T22:22:24.833Z,67.40
2018-07-26T22:24:53.271Z,67.70
2018-07-26T22:27:21.647Z,68.30
2018-07-26T22:29:50.505Z,69.50
2018-07-26T22:32:18.818Z,68.90
2018-07-26T22:34:47.144Z,69.30
2018-07-26T22:37:15.494Z,68.60
2018-07-26T22:39:43.821Z,68.70
2018-07-26T22:42:13.156Z,69.30
2018-07-26T22:44:41.487Z,69.90
2018-07-26T22:47:09.919Z,69.50
2018-07-26T22:49:38.294Z,69.60
2018-07-26T22:52:06.610Z,70.30
2018-07-26T22:54:34.929Z,69.00
2018-07-26T22:57:03.335Z,68.90
2018-07-26T22:59:31.642Z,69.30
2018-07-26T23:02:00.005Z,69.10
2018-07-26T23:06:56.470Z,68.70
2018-07-26T23:09:24.796Z,68.20
2018-07-26T23:11:53.140Z,68.00
2018-07-26T23:14:21.469Z,68.10
2018-07-26T23:16:49.811Z,67.90
2018-07-26T23:19:18.148Z,68.20
2018-07-26T23:21:46.812Z,68.70
2018-07-26T23:24:15.215Z,69.00
2018-07-26T23:26:43.563Z,69.30
2018-07-26T23:29:12.167Z,69.80
2018-07-26T23:31:40.448Z,70.40
2018-07-26T23:34:08.823Z,70.10
2018-07-26T23:36:37.195Z,70.00
2018-07-26T23:39:07.460Z,71.00
2018-07-26T23:41:35.815Z,71.30
2018-07-26T23:44:04.173Z,70.90
2018-07-26T23:46:32.554Z,70.90
2018-07-26T23:49:00.930Z,71.50
2018-07-26T23:51:29.316Z,71.00
2018-07-26T23:53:57.845Z,71.30
2018-07-26T23:56:26.176Z,71.70
2018-07-26T23:58:54.650Z,72.20
